Archival Weather

Republic

Farmingdale, New York (KFRG)

Report from: Thursday, January 25, 2024 6:53 PM EST
Current time: Friday, June 21, 2024 8:59 PM EDT

Current weather – Weather history – Daily summaries
Weather forecast

Temperature11.7°C (53.1°F)
Dew point10.6°C (51.1°F)
Winds Calm
Visibility10 mi. (16.1 km)
Clouds Ceiling: Overcast 4,100 ft. (1,250 m)
Altimeter30.17 in.Hg (1022 mB)
Relative humidity93 %
Density altitude-502 ft. (-153 m)
Sea-level pressure102.2 kPa (1022 mB, 30.17 in.Hg)
Max temp last 6 hours14.4°C (57.9°F)
Min temp last 6 hours11.7°C (53.1°F)
Remarks Fully automated report
Automated weather observing station with precipitation discriminator
Present weather sensor not operating
Pressure rising more quickly
Flight conditions Visual Meteorological Conditions
Raw dataKFRG 252353Z AUTO 00000KT 10SM OVC041 12/11 A3017 RMK AO2 SLP218 T01170106 10144 20117 53019 PWINO
An error has occurred. This application may no longer respond until reloaded. Reload 🗙